Weather reports worldwide

Advertisment
Molina De Aragon, Spain (8232): temperature & dewpoint: 07.12.2018 10:00:00 - 13.12.2018 10:00:00 (CET)Molina De Aragon, Spain (8232): wind speed: 07.12.2018 10:00:00 - 13.12.2018 10:00:00 (CET)Molina De Aragon, Spain (8232): wind direction: 07.12.2018 10:00:00 - 13.12.2018 10:00:00 (CET)Molina De Aragon, Spain (8232): visibility: 07.12.2018 10:00:00 - 13.12.2018 10:00:00 (CET)Molina De Aragon, Spain (8232): precipitation: 07.12.2018 10:00:00 - 13.12.2018 10:00:00 (CET)
Date & Time tt [°C] td [°C] ff [km/h] ff [kn] dd vv [km] rr [mm]
13.12.2018 10:00:00 6,0 4,6 5 3 WSW 8 -
13.12.2018 09:00:00 5,6 4,2 9 5 WSW 20 0,0
13.12.2018 08:00:00 5,7 4,3 9 5 WSW 20 0,2
13.12.2018 07:00:00 5,3 4,1 11 6 WSW 11 -
13.12.2018 06:00:00 5,3 3,9 11 6 WSW 9 0,8
13.12.2018 05:00:00 5,5 4,3 15 8 WSW 6 0,4
13.12.2018 04:00:00 5,8 4,0 15 8 WSW 15 -
13.12.2018 03:00:00 5,9 3,9 16 9 WSW 15 0,0
13.12.2018 02:00:00 5,8 4,4 15 8 WSW 12 0,0
13.12.2018 01:00:00 5,8 4,6 9 5 WSW 12 -
13.12.2018 00:00:00 5,8 4,8 9 5 WSW 6 0,0
12.12.2018 23:00:00 6,1 4,4 9 5 W 17 0,0
12.12.2018 22:00:00 6,0 4,2 11 6 WSW 15 -
12.12.2018 21:00:00 5,8 4,4 8 4 WSW 16 0,0
12.12.2018 20:00:00 5,8 4,6 9 5 WSW 13 0,0
12.12.2018 19:00:00 6,0 4,2 11 6 WSW 19 -
12.12.2018 18:00:00 6,0 3,7 13 7 W 20 0,0
12.12.2018 17:00:00 7,0 2,9 15 8 W 20 0,0
12.12.2018 16:00:00 10,7 1,8 15 8 W 20 -
12.12.2018 15:00:00 13,0 0,4 16 9 WSW 20 0,0
12.12.2018 14:00:00 13,4 0,7 13 7 WSW 20 0,0
12.12.2018 13:00:00 11,2 2,0 9 5 WSW 20 -
12.12.2018 12:00:00 6,5 0,4 2 1 SW 20 0,0
12.12.2018 11:00:00 1,9 -1,0 2 1 SW 14 0,0
12.12.2018 10:00:00 -2,5 -3,1 2 1 SSE 20 -
12.12.2018 09:00:00 -4,5 -5,5 2 1 E 18 0,0
12.12.2018 08:00:00 -4,4 -5,4 0 0 N 19 0,0
12.12.2018 07:00:00 -4,1 -5,2 2 1 E 20 -
12.12.2018 06:00:00 -3,7 -4,8 2 1 NE 20 0,0
12.12.2018 05:00:00 -3,3 -4,4 2 1 E 20 0,0
12.12.2018 04:00:00 -2,6 -3,9 2 1 E 20 -
12.12.2018 03:00:00 -2,1 -3,8 2 1 E 20 0,0
12.12.2018 02:00:00 -1,3 -3,2 2 1 ESE 20 0,0
12.12.2018 01:00:00 -0,8 -2,8 4 2 E 20 -
12.12.2018 00:00:00 0,1 -2,4 4 2 E 20 0,0
11.12.2018 23:00:00 1,1 -2,0 2 1 E 20 0,0
11.12.2018 22:00:00 1,5 -2,1 4 2 E 20 -
11.12.2018 21:00:00 1,9 -2,2 4 2 ESE 20 0,0
11.12.2018 20:00:00 3,1 -2,2 2 1 ESE 20 0,0
11.12.2018 19:00:00 5,3 -2,5 0 0 N 19 -
11.12.2018 18:00:00 8,3 -2,4 4 2 SSW 19 0,0
11.12.2018 17:00:00 11,4 -2,8 4 2 W 20 0,0
11.12.2018 16:00:00 12,7 -2,8 9 5 WSW 20 -
11.12.2018 15:00:00 12,8 -3,5 9 5 WSW 20 0,0
11.12.2018 14:00:00 12,6 -3,7 9 5 WSW 20 0,0
11.12.2018 13:00:00 9,9 -1,8 8 4 W 20 -
11.12.2018 12:00:00 4,9 -0,7 4 2 SW 20 0,0
11.12.2018 11:00:00 1,2 -2,2 2 1 S 20 0,0
11.12.2018 10:00:00 -2,8 -3,8 2 1 SW 20 -
11.12.2018 09:00:00 -4,8 -5,6 0 0 N 19 0,0
11.12.2018 08:00:00 -5,2 -6,3 2 1 E 20 0,0
11.12.2018 07:00:00 -4,7 -5,8 2 1 ESE 20 -
11.12.2018 06:00:00 -4,5 -5,7 0 0 N 20 0,0
11.12.2018 05:00:00 -4,1 -5,2 2 1 E 20 0,0
11.12.2018 04:00:00 -3,7 -5,1 2 1 ENE 20 -
11.12.2018 03:00:00 -3,5 -4,9 0 0 N 20 0,0
11.12.2018 02:00:00 -3,1 -4,8 2 1 E 20 0,0
11.12.2018 01:00:00 -2,7 -4,7 0 0 N 20 -
11.12.2018 00:00:00 -2,3 -4,5 2 1 E 20 0,0
10.12.2018 23:00:00 -1,8 -4,5 2 1 ESE 20 0,0
10.12.2018 22:00:00 -1,1 -4,1 2 1 E 20 -
10.12.2018 21:00:00 0,1 -4,0 2 1 ESE 20 0,0
10.12.2018 20:00:00 1,5 -3,8 2 1 ESE 20 0,0
10.12.2018 19:00:00 4,2 -3,1 4 2 E 20 -
10.12.2018 18:00:00 8,7 -2,6 2 1 E 19 0,0
10.12.2018 17:00:00 13,1 -3,2 4 2 N 20 0,0
10.12.2018 16:00:00 14,7 -6,8 9 5 N 20 -
10.12.2018 15:00:00 14,8 -3,6 5 3 S 20 0,0
10.12.2018 14:00:00 13,1 -0,2 4 2 W 20 0,0
10.12.2018 13:00:00 10,2 -0,3 2 1 W 20 -
10.12.2018 12:00:00 6,0 1,7 2 1 W 19 0,0
10.12.2018 11:00:00 1,5 -0,6 2 1 SSE 20 0,0
10.12.2018 10:00:00 -2,9 -3,6 2 1 S 20 -
10.12.2018 09:00:00 -4,7 -5,5 2 1 SE 18 0,0
10.12.2018 08:00:00 -4,9 -5,7 2 1 SE 19 0,0
10.12.2018 07:00:00 -4,7 -5,7 2 1 E 20 -
10.12.2018 06:00:00 -4,4 -5,4 2 1 E 20 0,0
10.12.2018 05:00:00 -4,0 -5,1 2 1 E 20 0,0
10.12.2018 04:00:00 -3,5 -4,6 2 1 ESE 20 -
10.12.2018 03:00:00 -2,9 -4,2 2 1 E 20 0,0
10.12.2018 02:00:00 -2,4 -3,7 2 1 SE 20 0,0
10.12.2018 01:00:00 -1,8 -3,4 2 1 ENE 20 -
10.12.2018 00:00:00 -1,2 -3,2 2 1 NNE 20 0,0
09.12.2018 23:00:00 -0,2 -2,4 2 1 SE 20 0,0
09.12.2018 22:00:00 0,7 -2,2 2 1 E 20 -
09.12.2018 21:00:00 2,3 -1,7 4 2 E 20 0,0
09.12.2018 20:00:00 5,0 -1,0 2 1 ESE 20 0,0
09.12.2018 19:00:00 8,4 -0,4 5 3 W 20 -
09.12.2018 18:00:00 11,2 -0,6 8 4 WNW 20 0,0
09.12.2018 17:00:00 14,2 -1,9 8 4 W 20 0,0
09.12.2018 16:00:00 15,2 -1,0 9 5 W 20 -
09.12.2018 15:00:00 15,6 0,2 9 5 WNW 20 0,0
09.12.2018 14:00:00 15,0 2,2 11 6 W 20 0,0
09.12.2018 13:00:00 14,0 5,6 9 5 W 20 -
09.12.2018 12:00:00 10,1 5,3 2 1 S 20 0,0
09.12.2018 11:00:00 4,2 2,2 2 1 ENE 20 0,0
09.12.2018 10:00:00 -0,7 -1,0 2 1 WSW 20 -
09.12.2018 09:00:00 -2,5 -3,1 2 1 SE 20 0,0
09.12.2018 08:00:00 -2,6 -3,3 2 1 WNW 20 0,0
09.12.2018 07:00:00 -2,4 -3,1 2 1 E 20 -
09.12.2018 06:00:00 -2,1 -2,9 2 1 E 20 0,0
09.12.2018 05:00:00 -1,6 -2,4 2 1 SE 20 0,0
09.12.2018 04:00:00 -1,1 -1,8 2 1 E 20 -
09.12.2018 03:00:00 -1,1 -1,8 2 1 E 20 0,0
09.12.2018 02:00:00 -1,1 -1,9 2 1 NNE 20 0,0
09.12.2018 01:00:00 -0,6 -1,6 2 1 E 20 -
09.12.2018 00:00:00 -0,1 -1,2 2 1 ESE 20 0,0
08.12.2018 23:00:00 0,4 -1,0 2 1 ESE 20 0,0
08.12.2018 22:00:00 1,2 -0,4 2 1 ENE 20 -
08.12.2018 21:00:00 2,2 0,3 2 1 NE 20 0,0
08.12.2018 20:00:00 3,5 0,5 4 2 E 20 0,0
08.12.2018 19:00:00 6,2 1,7 4 2 E 20 -
08.12.2018 18:00:00 8,9 2,5 5 3 WNW 20 0,0
08.12.2018 17:00:00 11,7 2,2 8 4 W 20 0,0
08.12.2018 16:00:00 12,3 2,4 4 2 W 20 -
08.12.2018 15:00:00 11,2 2,2 8 4 WNW 20 0,0
08.12.2018 14:00:00 11,3 2,3 9 5 WNW 20 0,0
08.12.2018 13:00:00 10,1 3,4 9 5 WNW 20 -
08.12.2018 12:00:00 8,3 3,3 11 6 NW 20 0,0
08.12.2018 11:00:00 7,4 3,8 13 7 NNW 20 0,0
08.12.2018 10:00:00 5,2 4,3 2 1 SW 20 -
08.12.2018 09:00:00 4,0 3,1 2 1 NE 20 0,0
08.12.2018 08:00:00 3,9 3,3 2 1 S 20 0,0
08.12.2018 07:00:00 3,2 2,3 2 1 E 20 -
08.12.2018 06:00:00 3,3 2,0 4 2 E 20 0,0
08.12.2018 05:00:00 4,9 2,9 2 1 ESE 20 0,0
08.12.2018 04:00:00 6,9 4,0 2 1 W 20 -
08.12.2018 03:00:00 8,2 5,0 8 4 W 20 0,0
08.12.2018 02:00:00 8,1 5,2 5 3 W 20 0,0
08.12.2018 01:00:00 8,1 5,6 8 4 WNW 20 -
08.12.2018 00:00:00 6,5 5,4 5 3 W 20 0,0
07.12.2018 23:00:00 4,4 3,5 2 1 ESE 20 0,0
07.12.2018 22:00:00 3,3 1,8 2 1 ENE 20 -
07.12.2018 21:00:00 4,3 2,5 4 2 E 20 0,0
07.12.2018 20:00:00 5,1 2,4 4 2 ENE 20 0,0
07.12.2018 19:00:00 7,3 3,2 4 2 ESE 17 -
07.12.2018 18:00:00 10,7 3,7 2 1 WSW 19 0,0
07.12.2018 17:00:00 13,6 3,9 8 4 WSW 20 0,0
07.12.2018 16:00:00 14,5 3,0 9 5 WSW 20 -
07.12.2018 15:00:00 14,0 3,2 13 7 WSW 20 0,0
07.12.2018 14:00:00 12,6 3,8 9 5 SW 20 0,0
07.12.2018 13:00:00 7,9 4,1 2 1 S 20 -
07.12.2018 12:00:00 2,6 2,6 4 2 SSW 20 0,0
07.12.2018 11:00:00 -1,2 -1,2 2 1 WNW 1,2 0,0
07.12.2018 10:00:00 -2,5 -2,5 2 1 ESE 0,2 -

tt = temperature
td = dewpoint
ff = wind speed
dd = wind direction
vv = visibility
rr = precipitation

Next stations